Time;durP1;ratioP1;P1;durP2;ratioP2;P2;SDS_P1;SDS_P2;PMS_P1;PMS_P2;Temp;Humidity;BMP_temperature;BMP_pressure;BME280_temperature;BME280_humidity;BME280_pressure;Samples;Min_cycle;Max_cycle;Signal;HPM_P1;HPM_P2
2022/01/10 00:00:16;;;;;;;4.43;1.80;;;;;;;18.44;53.26;99730.09;5029163;28;20479;-62
2022/01/10 00:02:43;;;;;;;7.87;2.20;;;;;;;18.49;53.02;99738.31;5012040;28;20184;-62
2022/01/10 00:05:08;;;;;;;6.20;2.10;;;;;;;18.45;53.21;99731.75;5029145;28;20435;-63
2022/01/10 00:07:34;;;;;;;6.87;2.17;;;;;;;18.43;53.56;99737.03;5029863;28;20485;-63
2022/01/10 00:10:02;;;;;;;5.90;2.17;;;;;;;18.46;53.02;99746.88;5028964;28;20227;-62
2022/01/10 00:12:27;;;;;;;4.37;1.67;;;;;;;18.43;53.25;99756.22;5029384;28;20438;-62
2022/01/10 00:14:53;;;;;;;5.13;2.10;;;;;;;18.48;53.48;99761.56;5029056;28;20431;-62
2022/01/10 00:17:18;;;;;;;5.73;2.37;;;;;;;18.45;53.51;99753.78;5029395;28;20172;-62
2022/01/10 00:19:43;;;;;;;8.40;2.33;;;;;;;18.45;53.26;99760.31;5047638;28;20571;-63
2022/01/10 00:22:11;;;;;;;9.20;2.40;;;;;;;18.49;53.50;99769.75;5030848;28;20636;-63
2022/01/10 00:24:36;;;;;;;6.60;2.20;;;;;;;18.44;53.27;99769.28;5048372;28;20187;-63
2022/01/10 00:27:02;;;;;;;6.10;2.43;;;;;;;18.43;53.56;99768.47;5031049;28;20476;-63
2022/01/10 00:29:27;;;;;;;6.20;2.20;;;;;;;18.46;53.40;99781.16;5048587;28;20168;-63
2022/01/10 00:31:53;;;;;;;5.90;2.00;;;;;;;18.45;53.21;99782.34;5044107;28;20184;-62
2022/01/10 00:34:19;;;;;;;9.70;2.10;;;;;;;18.42;53.45;99775.38;5028655;28;20176;-62
2022/01/10 00:36:44;;;;;;;6.70;2.00;;;;;;;18.47;53.69;99779.94;5029931;28;20231;-62
2022/01/10 00:39:09;;;;;;;4.07;1.50;;;;;;;18.44;53.66;99781.56;5032024;28;20700;-62
2022/01/10 00:41:36;;;;;;;7.17;2.00;;;;;;;18.44;53.40;99781.56;5029227;28;20593;-62
2022/01/10 00:44:04;;;;;;;7.37;2.10;;;;;;;18.42;53.53;99783.97;5028637;28;20180;-62
2022/01/10 00:46:29;;;;;;;3.73;2.03;;;;;;;18.39;53.28;99790.47;5028454;28;20466;-62
2022/01/10 00:48:55;;;;;;;4.87;2.03;;;;;;;18.41;53.53;99790.91;5019414;28;20487;-62
2022/01/10 00:51:23;;;;;;;8.00;1.90;;;;;;;18.45;53.25;99794.63;5047119;28;20187;-62
2022/01/10 00:53:50;;;;;;;5.47;2.13;;;;;;;18.39;53.83;99795.38;5047918;28;20723;-62
2022/01/10 00:56:16;;;;;;;6.03;2.10;;;;;;;18.39;53.72;99801.06;5047015;28;20513;-62
2022/01/10 00:58:42;;;;;;;7.37;2.30;;;;;;;18.40;53.48;99803.56;5030959;28;20512;-62
2022/01/10 01:01:07;;;;;;;5.30;2.53;;;;;;;18.41;53.57;99804.38;5028539;28;20466;-62
2022/01/10 01:03:33;;;;;;;6.73;2.13;;;;;;;18.38;53.57;99811.72;5035476;28;20555;-62
2022/01/10 01:05:58;;;;;;;4.93;1.97;;;;;;;18.39;53.64;99810.50;5031634;28;20676;-62
2022/01/10 01:08:26;;;;;;;5.50;1.87;;;;;;;18.40;53.60;99802.72;5028191;28;20172;-62
2022/01/10 01:11:20;;;;;;;4.60;2.10;;;;;;;18.37;53.79;99812.91;5028240;28;20603;-62
2022/01/10 01:13:52;;;;;;;6.43;1.90;;;;;;;18.39;53.60;99827.63;5027495;28;20436;-62
2022/01/10 01:16:30;;;;;;;4.03;2.07;;;;;;;18.37;53.89;99834.97;5028249;28;20426;-63
2022/01/10 01:19:13;;;;;;;5.27;2.00;;;;;;;18.36;53.96;99836.19;5036755;28;20466;-62
2022/01/10 01:24:23;;;;;;;6.00;2.10;;;;;;;18.39;53.39;99833.34;5033199;28;20877;-62
2022/01/10 01:26:49;;;;;;;4.73;2.10;;;;;;;18.34;53.80;99850.00;5048160;28;20510;-62
2022/01/10 01:29:17;;;;;;;4.70;2.10;;;;;;;18.37;54.04;99855.75;5047827;28;20258;-62
2022/01/10 01:31:42;;;;;;;4.90;2.00;;;;;;;18.33;53.77;99859.81;5047364;28;20436;-62
2022/01/10 01:34:08;;;;;;;3.67;1.80;;;;;;;18.35;53.52;99866.78;5028181;28;20427;-62
2022/01/10 01:36:34;;;;;;;14.50;2.47;;;;;;;18.36;53.73;99865.56;5031895;28;20256;-62
2022/01/10 01:39:04;;;;;;;9.63;2.17;;;;;;;18.33;53.65;99868.38;5033529;28;20813;-62
2022/01/10 01:43:55;;;;;;;4.37;1.70;;;;;;;18.36;53.60;99877.00;5032446;28;20414;-63
2022/01/10 01:46:20;;;;;;;3.47;1.73;;;;;;;18.32;53.89;99881.00;5031196;28;20176;-62
2022/01/10 01:48:46;;;;;;;5.10;1.63;;;;;;;18.33;53.56;99888.38;5039483;28;20517;-62
2022/01/10 01:51:11;;;;;;;8.30;2.00;;;;;;;18.33;53.71;99889.22;5051190;28;20183;-62
2022/01/10 01:53:37;;;;;;;4.43;1.73;;;;;;;18.32;53.80;99883.84;5051246;28;20218;-62
2022/01/10 01:56:07;;;;;;;3.57;1.70;;;;;;;18.36;53.67;99894.13;5051799;28;20628;-62
2022/01/10 01:58:32;;;;;;;3.77;1.60;;;;;;;18.39;53.66;99898.25;5052192;28;20196;-62
2022/01/10 02:00:58;;;;;;;5.10;2.00;;;;;;;18.33;53.80;99897.78;5051069;28;20473;-62
2022/01/10 02:03:23;;;;;;;5.03;1.90;;;;;;;18.38;53.75;99897.44;5051664;28;20606;-62
2022/01/10 02:05:48;;;;;;;4.47;1.57;;;;;;;18.36;53.43;99905.56;5033670;28;20218;-62
2022/01/10 02:08:14;;;;;;;4.30;1.90;;;;;;;18.36;53.71;99896.19;5051813;28;20222;-62
2022/01/10 02:10:39;;;;;;;4.40;1.90;;;;;;;18.33;53.71;99897.78;5038926;28;20184;-62
2022/01/10 02:13:05;;;;;;;4.10;1.90;;;;;;;18.33;53.92;99906.38;5031611;28;20191;-62
2022/01/10 02:15:42;;;;;;;4.20;1.73;;;;;;;18.35;53.81;99911.66;5031354;28;20212;-62
2022/01/10 02:18:07;;;;;;;3.13;1.60;;;;;;;18.30;54.15;99912.81;5040526;28;20260;-62
2022/01/10 02:20:33;;;;;;;6.60;2.03;;;;;;;18.34;53.89;99925.16;5051119;28;20910;-63
2022/01/10 02:22:58;;;;;;;5.07;2.63;;;;;;;18.33;53.81;99922.69;5051387;28;20691;-62
2022/01/10 02:25:24;;;;;;;2.63;1.50;;;;;;;18.34;53.78;99919.44;5051480;28;20404;-62
2022/01/10 02:27:50;;;;;;;8.00;2.10;;;;;;;18.30;54.14;99929.13;5051092;28;20271;-63
2022/01/10 02:30:15;;;;;;;6.50;1.80;;;;;;;18.31;53.91;99931.59;5050693;28;20650;-63
2022/01/10 02:32:41;;;;;;;6.03;2.03;;;;;;;18.33;53.83;99937.81;5042144;28;20241;-62
2022/01/10 02:35:37;;;;;;;4.97;2.20;;;;;;;18.29;53.78;99938.91;5036425;28;20183;-62
2022/01/10 02:38:03;;;;;;;4.70;1.90;;;;;;;18.31;53.55;99930.78;5031168;28;20238;-62
2022/01/10 02:40:30;;;;;;;4.13;1.60;;;;;;;18.31;53.83;99937.31;5030641;28;20419;-62
2022/01/10 02:42:56;;;;;;;6.93;1.63;;;;;;;18.30;53.92;99938.53;5031070;28;20398;-62
2022/01/10 02:45:21;;;;;;;3.87;1.47;;;;;;;18.38;53.62;99946.03;5030595;28;20428;-62
2022/01/10 02:47:47;;;;;;;4.37;2.00;;;;;;;18.31;53.76;99948.75;5033228;28;20184;-62
2022/01/10 02:50:13;;;;;;;4.50;1.90;;;;;;;18.29;53.89;99945.47;5049886;28;20654;-62
2022/01/10 02:52:39;;;;;;;6.60;1.50;;;;;;;18.31;53.50;99942.22;5046029;28;20227;-62
2022/01/10 02:55:05;;;;;;;3.40;1.50;;;;;;;18.28;53.79;99951.56;5033168;28;20262;-62
2022/01/10 02:57:30;;;;;;;5.40;2.10;;;;;;;18.29;53.58;99954.03;5031019;28;20199;-62
2022/01/10 02:59:57;;;;;;;4.17;1.40;;;;;;;18.29;53.69;99954.03;5030188;28;20990;-62
2022/01/10 03:02:27;;;;;;;5.63;2.00;;;;;;;18.26;53.94;99963.38;5030458;28;20192;-62
2022/01/10 03:04:52;;;;;;;4.00;1.90;;;;;;;18.28;54.19;99966.69;5032461;28;20439;-62
2022/01/10 03:07:18;;;;;;;4.80;2.07;;;;;;;18.24;54.02;99974.38;5029649;28;20518;-62
2022/01/10 03:09:43;;;;;;;4.23;1.83;;;;;;;18.23;53.74;99974.75;5015003;28;20168;-62
2022/01/10 03:12:09;;;;;;;4.27;1.70;;;;;;;18.24;54.10;99977.25;5030429;28;20179;-62
2022/01/10 03:14:36;;;;;;;3.37;1.60;;;;;;;18.24;54.04;99980.09;5030749;28;20655;-62
2022/01/10 03:17:01;;;;;;;4.20;1.80;;;;;;;18.30;53.92;99987.13;5030453;28;20238;-62
2022/01/10 03:19:27;;;;;;;4.27;1.53;;;;;;;18.28;53.88;99994.44;5049431;28;20466;-62
2022/01/10 03:21:52;;;;;;;4.43;2.00;;;;;;;18.31;53.77;99991.63;5050005;28;20179;-63
2022/01/10 03:24:19;;;;;;;4.07;1.53;;;;;;;18.29;53.73;99994.03;5049757;28;20542;-63
2022/01/10 03:26:44;;;;;;;3.97;1.97;;;;;;;18.30;54.00;100003.41;5050062;28;20200;-63
2022/01/10 03:29:10;;;;;;;4.80;2.43;;;;;;;18.31;53.70;100005.09;5049613;28;20469;-62
2022/01/10 03:31:35;;;;;;;3.77;2.33;;;;;;;18.27;53.82;100012.78;5032516;28;20542;-62
2022/01/10 03:34:01;;;;;;;3.47;1.90;;;;;;;18.31;53.85;100020.19;5030342;28;20230;-62
2022/01/10 03:36:26;;;;;;;4.00;1.53;;;;;;;18.29;53.82;100019.75;5030077;28;20618;-62
2022/01/10 03:38:52;;;;;;;5.13;1.50;;;;;;;18.24;53.96;100020.09;5031085;28;20200;-62
2022/01/10 03:41:17;;;;;;;4.03;2.00;;;;;;;18.22;54.10;100019.63;5030292;28;20172;-62
2022/01/10 03:43:42;;;;;;;5.27;1.87;;;;;;;18.34;53.82;100022.31;5029933;28;20169;-62
2022/01/10 03:46:08;;;;;;;4.07;1.60;;;;;;;18.32;53.75;100023.88;5029634;28;20177;-62
2022/01/10 03:48:33;;;;;;;3.90;1.40;;;;;;;18.28;54.07;100029.56;5018123;28;20183;-62
2022/01/10 03:50:59;;;;;;;3.90;1.60;;;;;;;18.29;53.77;100031.19;5048763;28;20180;-62
2022/01/10 03:53:24;;;;;;;3.10;1.67;;;;;;;18.33;53.66;100032.09;5049855;28;20202;-62
2022/01/10 03:55:50;;;;;;;3.37;1.70;;;;;;;18.27;53.63;100033.59;5031219;28;20179;-62
2022/01/10 03:58:15;;;;;;;3.37;1.80;;;;;;;18.30;54.27;100040.56;5048477;28;20195;-62
2022/01/10 04:00:41;;;;;;;4.10;1.87;;;;;;;18.29;53.87;100041.78;5049006;28;20269;-62
2022/01/10 04:03:07;;;;;;;4.33;2.00;;;;;;;18.28;53.65;100046.69;5049759;28;20669;-62
2022/01/10 04:05:33;;;;;;;4.10;1.93;;;;;;;18.24;53.92;100057.25;5049651;28;20180;-62
2022/01/10 04:07:59;;;;;;;4.50;1.77;;;;;;;18.25;53.73;100058.88;5049634;28;20422;-62
2022/01/10 04:10:24;;;;;;;4.10;1.70;;;;;;;18.27;53.92;100056.47;5046358;28;20422;-62
2022/01/10 04:12:50;;;;;;;5.53;2.23;;;;;;;18.29;53.62;100065.50;5029210;28;20248;-62
2022/01/10 04:15:15;;;;;;;9.27;1.97;;;;;;;18.27;53.84;100062.16;5029213;28;20260;-62
2022/01/10 04:17:41;;;;;;;2.40;1.60;;;;;;;18.26;54.02;100062.59;5034609;28;20544;-62
2022/01/10 04:20:07;;;;;;;5.00;1.97;;;;;;;18.28;53.83;100066.69;5048562;28;20199;-62
2022/01/10 04:22:32;;;;;;;4.60;1.80;;;;;;;18.26;53.70;100076.88;5048051;28;20187;-62
2022/01/10 04:24:58;;;;;;;3.60;1.90;;;;;;;18.21;54.46;100077.19;5048294;28;20200;-62
2022/01/10 04:27:23;;;;;;;4.20;1.73;;;;;;;18.32;53.56;100079.03;5042326;28;20550;-62
2022/01/10 04:29:49;;;;;;;3.83;2.00;;;;;;;18.23;54.06;100095.59;5028836;28;20168;-63
2022/01/10 04:32:14;;;;;;;2.83;1.40;;;;;;;18.26;53.59;100089.09;5028833;28;20180;-62
2022/01/10 04:34:40;;;;;;;3.53;1.73;;;;;;;18.20;53.77;100093.50;5029212;28;20698;-62
2022/01/10 04:37:06;;;;;;;4.03;1.90;;;;;;;18.28;53.90;100098.13;5031672;28;20188;-62
2022/01/10 04:39:32;;;;;;;3.80;1.73;;;;;;;18.27;53.52;100099.31;5028074;28;20496;-62
2022/01/10 04:41:57;;;;;;;4.70;1.97;;;;;;;18.27;53.61;100104.22;5029236;28;20430;-62
2022/01/10 04:44:23;;;;;;;2.50;1.40;;;;;;;18.22;53.88;100102.50;5029026;28;20152;-62
2022/01/10 04:46:48;;;;;;;3.53;1.40;;;;;;;18.23;53.70;100112.75;5028841;28;20183;-62
2022/01/10 04:49:21;;;;;;;3.13;1.70;;;;;;;18.27;53.66;100107.88;5041042;28;20176;-62
2022/01/10 04:51:48;;;;;;;4.73;1.80;;;;;;;18.28;53.49;100114.44;5048714;28;20511;-62
2022/01/10 04:54:14;;;;;;;3.73;1.90;;;;;;;18.26;53.61;100111.16;5047698;28;20557;-62
2022/01/10 04:56:39;;;;;;;2.73;1.60;;;;;;;18.25;53.93;100116.03;5031062;28;20455;-62
2022/01/10 04:59:05;;;;;;;3.83;1.80;;;;;;;18.26;53.73;100117.69;5028144;28;20208;-62
2022/01/10 05:01:30;;;;;;;4.00;1.87;;;;;;;18.30;53.57;100123.44;5033196;28;20169;-62
2022/01/10 05:03:55;;;;;;;4.07;1.50;;;;;;;18.28;53.59;100131.59;5030712;28;20184;-62
2022/01/10 05:06:21;;;;;;;3.17;1.50;;;;;;;18.29;53.55;100128.34;5028485;28;20215;-62
2022/01/10 05:08:46;;;;;;;2.60;1.40;;;;;;;18.27;53.73;100136.47;5028504;28;20588;-62
2022/01/10 05:11:12;;;;;;;4.30;2.10;;;;;;;18.29;53.79;100136.94;5032446;28;20188;-62
2022/01/10 05:13:37;;;;;;;4.60;1.90;;;;;;;18.30;54.05;100141.44;5033088;28;20172;-62
2022/01/10 05:16:04;;;;;;;3.90;1.40;;;;;;;18.33;53.71;100143.56;5032548;28;20575;-62
2022/01/10 05:18:31;;;;;;;2.67;1.47;;;;;;;18.29;53.80;100144.66;5044283;28;20195;-62
2022/01/10 05:20:56;;;;;;;2.70;1.70;;;;;;;18.33;53.97;100146.44;5052289;28;20508;-62
2022/01/10 05:23:21;;;;;;;3.97;1.80;;;;;;;18.30;53.62;100158.56;5034486;28;20429;-62
2022/01/10 05:25:47;;;;;;;4.67;2.00;;;;;;;18.36;53.29;100157.06;5052534;28;20183;-62
2022/01/10 05:28:13;;;;;;;7.43;2.00;;;;;;;18.34;53.64;100159.50;5052312;28;20253;-62
2022/01/10 05:30:39;;;;;;;4.83;2.10;;;;;;;18.37;53.41;100161.56;5044631;28;20235;-62
2022/01/10 05:33:05;;;;;;;3.50;2.00;;;;;;;18.33;53.54;100169.28;5014229;28;20913;-62
2022/01/10 05:35:30;;;;;;;3.77;1.60;;;;;;;18.35;53.62;100178.28;5031981;28;20173;-62
2022/01/10 05:37:56;;;;;;;3.60;1.77;;;;;;;18.30;53.61;100184.28;5032520;28;20173;-62
2022/01/10 05:40:21;;;;;;;3.10;1.60;;;;;;;18.29;53.61;100185.50;5032080;28;20199;-62
2022/01/10 05:42:47;;;;;;;4.03;1.80;;;;;;;18.29;53.81;100190.38;5032518;28;20180;-62
2022/01/10 05:45:12;;;;;;;2.50;1.70;;;;;;;18.27;53.95;100187.91;5031315;28;20259;-62
2022/01/10 05:47:42;;;;;;;2.83;1.40;;;;;;;18.34;53.61;100196.66;5031313;28;20184;-62
2022/01/10 05:50:10;;;;;;;3.40;1.80;;;;;;;18.31;53.64;100200.22;5034185;28;20190;-62
2022/01/10 05:52:35;;;;;;;2.80;1.50;;;;;;;18.28;53.71;100203.88;5052283;28;20442;-62
2022/01/10 05:55:01;;;;;;;3.90;1.50;;;;;;;18.31;53.80;100210.84;5033943;28;20457;-63
2022/01/10 05:57:26;;;;;;;3.30;1.70;;;;;;;18.23;53.78;100209.91;5051564;28;20180;-62
2022/01/10 05:59:52;;;;;;;3.77;1.87;;;;;;;18.28;53.80;100217.31;5050599;28;20232;-62
2022/01/10 06:02:17;;;;;;;3.00;1.57;;;;;;;18.24;53.87;100216.44;5051832;28;20207;-62
2022/01/10 06:04:42;;;;;;;3.07;1.60;;;;;;;18.26;53.57;100232.00;5052112;28;20168;-62
2022/01/10 06:07:08;;;;;;;2.93;1.60;;;;;;;18.23;53.76;100234.78;5051919;28;20192;-62
2022/01/10 06:09:33;;;;;;;2.70;1.40;;;;;;;18.31;53.45;100243.09;5051551;28;20172;-63
2022/01/10 06:11:59;;;;;;;3.30;1.90;;;;;;;18.27;53.81;100242.19;5051791;28;20178;-63
2022/01/10 06:14:24;;;;;;;2.97;1.30;;;;;;;18.25;53.94;100243.78;5050689;28;20175;-62
2022/01/10 06:16:50;;;;;;;3.23;1.77;;;;;;;18.30;53.52;100254.91;5028781;28;20180;-62
2022/01/10 06:19:15;;;;;;;3.80;1.80;;;;;;;18.27;53.66;100256.50;5031283;28;20199;-62
2022/01/10 06:21:40;;;;;;;2.93;1.47;;;;;;;18.24;53.74;100268.69;5050783;28;20172;-62
2022/01/10 06:24:06;;;;;;;3.47;1.40;;;;;;;18.28;53.84;100263.03;5051553;28;20190;-62
2022/01/10 06:26:31;;;;;;;2.97;1.57;;;;;;;18.29;53.71;100281.84;5035917;28;20176;-62
2022/01/10 06:28:57;;;;;;;3.70;1.70;;;;;;;18.30;53.51;100290.03;5033671;28;20173;-62
2022/01/10 06:31:22;;;;;;;2.73;1.50;;;;;;;18.23;53.98;100289.91;5013527;28;20176;-62
2022/01/10 06:33:48;;;;;;;2.63;1.50;;;;;;;18.25;53.63;100296.06;5031417;28;20188;-62
2022/01/10 06:36:13;;;;;;;2.63;1.30;;;;;;;18.27;53.73;100302.22;5031077;28;20180;-62
2022/01/10 06:38:39;;;;;;;3.83;1.67;;;;;;;18.28;53.50;100306.75;5031151;28;20196;-62
2022/01/10 06:41:04;;;;;;;3.97;1.60;;;;;;;18.31;53.39;100297.41;5030705;28;20165;-62
2022/01/10 06:43:30;;;;;;;3.23;1.30;;;;;;;18.22;53.86;100305.38;5030930;28;20179;-62
2022/01/10 06:45:55;;;;;;;3.70;1.63;;;;;;;18.31;53.61;100313.75;5031071;28;20184;-62
2022/01/10 06:48:20;;;;;;;3.20;1.20;;;;;;;18.28;53.37;100321.03;5035096;28;20520;-62
2022/01/10 06:50:48;;;;;;;2.47;1.50;;;;;;;18.30;53.82;100324.34;5050360;28;20345;-62
2022/01/10 06:53:16;;;;;;;3.00;1.50;;;;;;;18.32;53.57;100330.53;5050842;28;20180;-62
2022/01/10 06:55:42;;;;;;;3.03;1.63;;;;;;;18.26;53.51;100334.88;5048215;28;20421;-62
2022/01/10 06:58:07;;;;;;;3.83;1.80;;;;;;;18.37;53.42;100349.41;5032699;28;20461;-62
2022/01/10 07:00:33;;;;;;;3.00;1.47;;;;;;;18.33;53.68;100351.34;5030545;28;20228;-62
2022/01/10 07:02:59;;;;;;;3.90;1.50;;;;;;;18.36;53.42;100354.28;5032966;28;20716;-62
2022/01/10 07:05:24;;;;;;;4.33;1.60;;;;;;;18.40;53.15;100363.75;5032982;28;20184;-62
2022/01/10 07:07:50;;;;;;;3.40;1.70;;;;;;;18.40;53.15;100358.03;5032513;28;20181;-62
2022/01/10 07:10:15;;;;;;;3.67;1.60;;;;;;;18.35;53.75;100357.50;5030943;28;20176;-62
2022/01/10 07:12:40;;;;;;;2.57;1.43;;;;;;;18.36;53.59;100364.91;5033013;28;20180;-62
2022/01/10 07:15:07;;;;;;;2.73;1.73;;;;;;;18.38;53.37;100369.03;5030312;28;20168;-62
2022/01/10 07:17:33;;;;;;;3.30;1.87;;;;;;;18.36;53.49;100365.72;5017453;28;20285;-62
2022/01/10 07:19:59;;;;;;;2.83;1.40;;;;;;;18.35;53.80;100381.22;5048937;28;20457;-63
2022/01/10 07:22:24;;;;;;;2.60;1.47;;;;;;;18.37;53.38;100386.56;5049680;28;20768;-62
2022/01/10 07:24:50;;;;;;;2.80;1.63;;;;;;;18.28;53.93;100391.66;5032393;28;20544;-62
2022/01/10 07:27:15;;;;;;;3.00;1.30;;;;;;;18.30;54.00;100401.50;5012401;28;20255;-62
2022/01/10 07:29:40;;;;;;;3.90;1.30;;;;;;;18.36;53.38;100405.72;5030237;28;20172;-63
2022/01/10 07:32:06;;;;;;;2.90;1.43;;;;;;;18.40;53.06;100408.66;5030269;28;20165;-60
2022/01/10 07:34:32;;;;;;;2.90;1.60;;;;;;;18.38;53.43;100416.78;5012454;28;20184;-60
2022/01/10 07:36:57;;;;;;;3.00;1.57;;;;;;;18.31;53.64;100428.88;5029819;28;20181;-60
2022/01/10 07:39:23;;;;;;;2.60;1.70;;;;;;;18.33;53.44;100431.38;5029784;28;20701;-59
2022/01/10 07:41:48;;;;;;;2.90;1.53;;;;;;;18.33;53.83;100432.22;5029936;28;20185;-60
2022/01/10 07:44:14;;;;;;;2.47;1.43;;;;;;;18.35;53.53;100441.25;5029525;28;20184;-60
2022/01/10 07:46:39;;;;;;;2.80;1.57;;;;;;;18.32;53.58;100456.28;5029786;28;20184;-60
2022/01/10 07:49:04;;;;;;;2.93;1.70;;;;;;;18.36;53.49;100462.91;5040114;28;20188;-60
2022/01/10 07:51:30;;;;;;;3.10;1.30;;;;;;;18.33;53.67;100466.53;5049473;28;20175;-60
2022/01/10 07:53:55;;;;;;;4.13;1.60;;;;;;;18.30;53.30;100472.94;5049890;28;20180;-60
2022/01/10 07:56:21;;;;;;;2.23;1.30;;;;;;;18.28;53.63;100478.22;5049321;28;20230;-60
2022/01/10 07:58:50;;;;;;;3.17;2.00;;;;;;;18.29;53.72;100479.03;5049275;28;20206;-59
2022/01/10 08:01:15;;;;;;;3.07;1.60;;;;;;;18.30;53.65;100481.53;5028040;28;20260;-60
2022/01/10 08:03:41;;;;;;;4.30;1.90;;;;;;;18.36;53.45;100487.81;5029567;28;20458;-60
2022/01/10 08:06:06;;;;;;;3.83;1.67;;;;;;;18.29;53.67;100488.44;5029523;28;20204;-60
2022/01/10 08:08:33;;;;;;;3.17;1.60;;;;;;;18.27;53.46;100490.03;5029263;28;20522;-60
2022/01/10 08:10:59;;;;;;;2.83;1.67;;;;;;;18.34;53.64;100502.47;5028787;28;20190;-60
2022/01/10 08:13:24;;;;;;;2.30;1.50;;;;;;;18.29;53.80;100499.88;5029842;28;20427;-60
2022/01/10 08:15:50;;;;;;;3.27;1.80;;;;;;;18.37;53.51;100498.84;5029379;28;20222;-60
2022/01/10 08:18:16;;;;;;;4.00;1.40;;;;;;;18.29;53.85;100507.63;5029161;28;20188;-59
2022/01/10 08:20:41;;;;;;;2.30;1.30;;;;;;;18.33;53.50;100523.69;5027187;28;20220;-60
2022/01/10 08:23:07;;;;;;;2.20;1.30;;;;;;;18.34;53.41;100531.06;5027785;28;20177;-60
2022/01/10 08:25:32;;;;;;;3.33;1.67;;;;;;;18.35;53.66;100531.88;5010037;28;20200;-59
2022/01/10 08:27:58;;;;;;;2.37;1.40;;;;;;;18.31;53.51;100537.47;5011629;28;20641;-59
2022/01/10 08:30:23;;;;;;;2.37;1.50;;;;;;;18.36;53.32;100542.94;5008842;28;20177;-60
2022/01/10 08:32:50;;;;;;;3.13;1.60;;;;;;;18.35;53.51;100547.00;5012015;28;20177;-60
2022/01/10 08:35:19;;;;;;;2.40;1.60;;;;;;;18.34;53.32;100542.50;5009050;28;20177;-61
2022/01/10 08:37:44;;;;;;;2.73;1.60;;;;;;;18.40;53.41;100549.56;5009558;28;20550;-61
2022/01/10 08:40:11;;;;;;;2.70;1.70;;;;;;;18.35;53.58;100549.84;5008767;28;20898;-61
2022/01/10 08:42:37;;;;;;;2.67;1.53;;;;;;;18.28;53.30;100543.97;5009438;28;20258;-60
2022/01/10 08:45:02;;;;;;;2.90;1.40;;;;;;;18.27;53.81;100553.72;5009029;28;20509;-60
2022/01/10 08:47:28;;;;;;;3.10;1.53;;;;;;;18.24;54.33;100551.63;5009095;28;20260;-60
2022/01/10 08:49:54;;;;;;;2.07;1.10;;;;;;;18.28;53.65;100558.25;5024311;28;20628;-60
2022/01/10 08:52:19;;;;;;;2.90;1.50;;;;;;;18.29;53.41;100562.75;5028545;28;20430;-61
2022/01/10 08:54:47;;;;;;;2.93;1.60;;;;;;;18.30;53.61;100557.84;5021664;28;20177;-61
2022/01/10 08:57:12;;;;;;;2.20;1.53;;;;;;;18.33;53.68;100563.72;5009000;28;20180;-61
2022/01/10 08:59:37;;;;;;;2.40;1.43;;;;;;;18.36;53.39;100573.56;5013894;28;20847;-61
2022/01/10 09:02:03;;;;;;;2.00;1.23;;;;;;;18.31;53.59;100571.78;5028971;28;20492;-60
2022/01/10 09:04:29;;;;;;;2.80;1.60;;;;;;;18.34;53.63;100581.66;5014754;28;20249;-60
2022/01/10 09:06:58;;;;;;;3.30;1.50;;;;;;;18.37;53.81;100589.50;5029357;28;20246;-60
2022/01/10 09:09:23;;;;;;;3.00;1.30;;;;;;;18.37;53.41;100593.16;5028351;28;20187;-60
2022/01/10 09:11:49;;;;;;;2.97;1.80;;;;;;;18.37;53.71;100604.59;5030900;28;20423;-61
2022/01/10 09:14:15;;;;;;;2.77;1.60;;;;;;;18.37;53.52;100600.94;5031139;28;20624;-61
2022/01/10 09:16:41;;;;;;;2.90;1.60;;;;;;;18.29;53.63;100597.06;5028367;28;20215;-60
2022/01/10 09:19:06;;;;;;;2.83;1.50;;;;;;;18.36;53.34;100602.97;5044990;28;20286;-60
2022/01/10 09:21:31;;;;;;;3.07;1.57;;;;;;;18.33;53.52;100598.00;5048539;28;20229;-60
2022/01/10 09:23:57;;;;;;;2.83;1.60;;;;;;;18.37;53.10;100607.47;5046357;28;20184;-60
2022/01/10 09:26:23;;;;;;;3.20;1.57;;;;;;;18.37;53.32;100616.03;5028681;28;20283;-60
2022/01/10 09:28:48;;;;;;;2.63;1.63;;;;;;;18.42;53.34;100624.31;5010742;28;20183;-60
2022/01/10 09:31:14;;;;;;;2.50;1.43;;;;;;;18.39;53.50;100625.09;5027658;28;20187;-60
2022/01/10 09:33:40;;;;;;;2.00;1.33;;;;;;;18.38;53.28;100634.88;5028367;28;20640;-60
2022/01/10 09:36:06;;;;;;;2.90;1.57;;;;;;;18.35;53.26;100635.59;5028495;28;20185;-60
2022/01/10 09:38:31;;;;;;;3.23;1.80;;;;;;;18.35;53.70;100641.31;5028386;28;20497;-60
2022/01/10 09:40:56;;;;;;;3.03;1.60;;;;;;;18.31;53.44;100646.09;5027786;28;20176;-60
2022/01/10 09:43:22;;;;;;;2.60;1.53;;;;;;;18.32;53.57;100658.34;5028274;28;20176;-60
2022/01/10 09:45:48;;;;;;;2.83;1.60;;;;;;;18.36;53.61;100656.47;5010152;28;20184;-60
2022/01/10 09:48:14;;;;;;;3.00;1.40;;;;;;;18.35;53.43;100657.63;5031443;28;20242;-60
2022/01/10 09:50:39;;;;;;;3.00;1.80;;;;;;;18.34;53.37;100653.13;5047861;28;20249;-61
2022/01/10 09:53:05;;;;;;;3.43;1.43;;;;;;;18.32;53.59;100656.34;5048056;28;20180;-61
2022/01/10 09:55:33;;;;;;;3.23;1.60;;;;;;;18.38;53.28;100662.63;5048096;28;20163;-61
2022/01/10 09:57:58;;;;;;;3.67;1.33;;;;;;;18.32;53.50;100659.19;5034383;28;20198;-61
2022/01/10 10:00:24;;;;;;;3.03;1.73;;;;;;;18.27;53.49;100665.16;5050524;28;20482;-60
2022/01/10 10:02:49;;;;;;;2.90;1.60;;;;;;;18.31;53.59;100662.44;5052021;28;20499;-60
2022/01/10 10:05:16;;;;;;;2.87;1.73;;;;;;;18.41;52.85;100665.56;5051578;28;20644;-60
2022/01/10 10:07:41;;;;;;;4.40;1.63;;;;;;;18.36;53.14;100668.69;5051483;28;20199;-60
2022/01/10 10:10:11;;;;;;;2.80;1.60;;;;;;;18.32;53.18;100678.38;5051617;28;20418;-60
2022/01/10 10:12:38;;;;;;;3.57;1.33;;;;;;;18.33;53.44;100682.91;5052035;28;20234;-60
2022/01/10 10:15:06;;;;;;;2.90;1.50;;;;;;;18.32;53.39;100678.38;5051129;28;20501;-60
2022/01/10 10:17:32;;;;;;;2.57;1.37;;;;;;;18.33;53.45;100683.75;5046860;28;20451;-60
2022/01/10 10:19:57;;;;;;;2.80;1.70;;;;;;;18.33;53.47;100683.75;5048150;28;20535;-60
2022/01/10 10:22:23;;;;;;;3.40;1.90;;;;;;;18.34;53.56;100681.69;5051492;28;20180;-61
2022/01/10 10:24:49;;;;;;;2.70;1.40;;;;;;;18.38;53.37;100685.50;5051460;28;20730;-60
2022/01/10 10:27:20;;;;;;;3.50;1.50;;;;;;;18.36;53.29;100694.44;5049474;28;20422;-61
2022/01/10 10:29:46;;;;;;;2.30;1.17;;;;;;;18.37;53.12;100683.84;5031304;28;20175;-60
2022/01/10 10:32:15;;;;;;;2.50;1.60;;;;;;;18.40;53.44;100692.50;5013755;28;20415;-61
2022/01/10 10:34:40;;;;;;;2.70;1.47;;;;;;;18.38;53.44;100694.91;5031257;28;20180;-61
2022/01/10 10:37:11;;;;;;;2.40;1.57;;;;;;;18.38;53.42;100703.47;5033305;28;20899;-60
2022/01/10 10:39:38;;;;;;;2.30;1.17;;;;;;;18.39;53.46;100690.84;5030555;28;20223;-60
2022/01/10 10:42:06;;;;;;;2.27;1.33;;;;;;;18.39;53.16;100699.41;5013328;28;20446;-60
2022/01/10 10:44:32;;;;;;;1.97;1.33;;;;;;;18.41;53.30;100699.88;5030488;28;20533;-60
2022/01/10 10:46:57;;;;;;;2.33;1.27;;;;;;;18.42;53.25;100704.38;5030230;28;20785;-61
2022/01/10 10:49:32;;;;;;;2.77;1.47;;;;;;;18.44;53.31;100702.00;5041978;28;20422;-61
2022/01/10 10:51:59;;;;;;;3.10;1.70;;;;;;;18.42;53.16;100704.38;5032679;28;20630;-61
2022/01/10 10:54:24;;;;;;;2.27;1.37;;;;;;;18.42;53.68;100715.00;5050138;28;20479;-61
2022/01/10 10:56:50;;;;;;;3.17;1.60;;;;;;;18.42;53.18;100710.09;5050878;28;20418;-61
2022/01/10 10:59:15;;;;;;;2.13;1.27;;;;;;;18.41;53.66;100719.06;5050182;28;20215;-61
2022/01/10 11:01:42;;;;;;;3.17;1.60;;;;;;;18.41;53.49;100728.44;5050742;28;20180;-61
2022/01/10 11:04:11;;;;;;;2.13;1.33;;;;;;;18.43;53.36;100726.06;5046499;28;20169;-60
2022/01/10 11:06:38;;;;;;;2.83;1.83;;;;;;;18.42;53.46;100726.44;5048016;28;20477;-60
2022/01/10 11:09:13;;;;;;;2.63;1.30;;;;;;;18.40;53.33;100734.53;5049348;28;20442;-60
2022/01/10 11:11:41;;;;;;;2.00;1.30;;;;;;;18.46;53.46;100733.06;5046839;28;20417;-60
2022/01/10 11:14:09;;;;;;;2.03;1.20;;;;;;;18.44;53.38;100735.47;5027534;28;20415;-60
2022/01/10 11:16:36;;;;;;;2.30;1.40;;;;;;;18.39;53.73;100735.72;5050715;28;20907;-60
2022/01/10 11:19:01;;;;;;;2.23;1.33;;;;;;;18.38;53.72;100742.66;5040963;28;20475;-61
2022/01/10 11:21:27;;;;;;;2.30;1.40;;;;;;;18.41;53.37;100750.50;5031515;28;20482;-61
2022/01/10 11:23:53;;;;;;;2.23;1.13;;;;;;;18.44;53.52;100747.72;5012354;28;20208;-60
2022/01/10 11:26:18;;;;;;;3.10;1.70;;;;;;;18.37;53.63;100758.16;5030190;28;20932;-60